Latest Coastal Weather Observations for Smithton

IDV60701

Issued at 6:32 am EST Thursday 13 August 2020 (issued every 10 minutes, with the page automatically refreshed every 10 minutes)

About coastal observations | Map of coastal stations | Coastal observations for VIC | Marine services | Other Formats
Station Details ID: 091292 Name: SMITHTON AERODROME Lat: -40.83 Lon: 145.08 Height: 7.5 m
Data from the previous 72 hours. | See also: Recent months at Smithton
Date/Time
EST
Wind Sea
Height
m
Swell Vis
km
Cloud Weather Temp
°C
Press
hPa
Rain since
9am
mm
Dir  Spd
kts
Gust
kts
Height
m
Period
s
Dir
13/06:30am ENE 9 13 - - - - - - - 11.3 1008.7 2.4
13/06:00am ENE 9 12 - - - - - - Recent precip. 11.3 1008.6 2.0
13/05:30am ENE 9 12 - - - - - - - 11.5 1008.5 1.4
13/05:00am ENE 8 11 - - - - - - - 11.6 1008.4 1.4
13/04:30am ENE 11 14 - - - - - - - 11.6 1008.3 1.4
13/04:00am E 10 13 - - - - - - - 11.6 1008.0 1.4
13/03:30am ENE 11 15 - - - - - - - 11.5 1008.1 1.4
13/03:00am ENE 11 14 - - - - - - Recent precip. 11.5 1008.3 1.4
13/02:30am ENE 10 13 - - - - - - - 11.4 1008.5 1.4
13/02:00am ENE 11 14 - - - - - - - 11.4 1008.6 1.2
13/01:30am ENE 11 15 - - - - - - - 11.5 1008.6 1.0
13/01:00am ENE 9 13 - - - - - - - 11.7 1008.6 1.0
13/12:30am ENE 10 13 - - - - - - - 11.7 1008.7 1.0
13/12:00am ENE 10 14 - - - - - - - 11.6 1008.6 1.0
 
Date/Time
EST
Wind Sea
Height
m
Swell Vis
km
Cloud Weather Temp
°C
Press
hPa
Rain since
9am
mm
Dir  Spd
kts
Gust
kts
Height
m
Period
s
Dir
12/11:30pm ENE 11 16 - - - - - - - 11.7 1008.6 1.0
12/11:00pm E 12 15 - - - - - - - 11.7 1008.7 1.0
12/10:30pm E 10 14 - - - - - - - 11.7 1008.9 1.0
12/10:00pm ENE 9 12 - - - - - - - 11.6 1008.8 1.0
12/09:30pm ENE 10 13 - - - - - - - 11.5 1008.7 1.0
12/09:00pm ENE 9 12 - - - - - - - 11.3 1008.5 1.0
12/08:30pm ENE 9 12 - - - - - - - 10.9 1008.4 1.0
12/08:00pm ENE 9 12 - - - - - - - 10.5 1008.0 1.0
12/07:30pm ENE 10 13 - - - - - - - 10.7 1007.9 1.0
12/07:00pm ENE 10 13 - - - - - - - 10.4 1007.8 1.0
12/06:30pm ENE 8 9 - - - - - - - 10.3 1007.6 1.0
12/06:00pm ENE 7 9 - - - - - - - 10.8 1007.4 1.0
12/05:30pm NE 7 8 - - - - - - - 11.2 1007.2 1.0
12/05:00pm NE 7 9 - - - - - - - 11.5 1007.1 1.0
12/04:30pm NE 6 9 - - - - - - - 11.8 1007.0 1.0
12/04:00pm NNE 9 12 - - - - - - - 12.1 1007.0 1.0
12/03:30pm NNE 8 11 - - - - - - - 12.5 1007.1 1.0
12/03:00pm N 9 11 - - - - - - - 12.7 1007.2 1.0
12/02:30pm N 8 11 - - - - - - - 12.6 1007.2 1.0
12/02:00pm N 8 12 - - - - - - - 12.5 1007.3 1.0
12/01:30pm NNE 8 11 - - - - - - - 12.2 1007.6 0.8
12/01:00pm NNE 9 13 - - - - - - - 11.8 1007.8 0.8
12/12:30pm NNE 10 13 - - - - - - - 11.4 1008.1 0.8
12/12:00pm NNE 12 15 - - - - - - - 11.3 1008.4 0.8
12/11:30am NNE 11 14 - - - - - - - 11.1 1008.8 0.8
12/11:00am NNE 11 14 - - - - - - - 10.9 1009.1 0.8
12/10:30am NE 11 18 - - - - - - - 10.7 1009.3 0.2
12/10:00am NE 12 19 - - - - - - - 10.4 1009.5 0.2
12/09:30am NNE 13 18 - - - - - - - 10.4 1009.9 0.0
12/09:00am NNE 11 16 - - - - - - Recent precip. 10.2 1010.1 2.4
12/08:30am NNE 13 18 - - - - - - - 10.3 1010.1 2.2
12/08:00am NNE 12 16 - - - - - - - 10.3 1010.2 1.6
12/07:30am NNE 11 14 - - - - - - - 10.3 1010.2 1.0
12/07:00am NNE 7 9 - - - - - - - 10.6 1010.1 0.4
12/06:30am ENE 10 13 - - - - - - - 10.8 1009.9 0.0
12/06:00am ENE 10 13 - - - - - - - 11.0 1010.0 0.0
12/05:30am ENE 11 14 - - - - - - - 11.1 1010.2 0.0
12/05:00am E 11 15 - - - - - - - 11.1 1010.3 0.0
12/04:30am E 10 13 - - - - - - - 10.9 1010.7 0.0
12/04:00am E 10 12 - - - - - - - 10.8 1010.9 0.0
12/03:30am E 9 11 - - - - - - - 10.9 1011.0 0.0
12/03:00am ENE 9 12 - - - - - - - 11.0 1011.5 0.0
12/02:30am ENE 10 12 - - - - - - - 11.0 1011.9 0.0
12/02:00am ENE 10 14 - - - - - - - 11.1 1012.2 0.0
12/01:30am ENE 10 13 - - - - - - - 11.1 1012.5 0.0
12/01:00am ENE 10 14 - - - - - - - 10.8 1012.6 0.0
12/12:30am ENE 11 14 - - - - - - - 10.9 1012.6 0.0
12/12:00am ENE 11 15 - - - - - - - 10.9 1012.7 0.0
 
Date/Time
EST
Wind Sea
Height
m
Swell Vis
km
Cloud Weather Temp
°C
Press
hPa
Rain since
9am
mm
Dir  Spd
kts
Gust
kts
Height
m
Period
s
Dir
11/11:30pm ENE 11 14 - - - - - - - 10.7 1012.8 0.0
11/11:00pm ENE 10 13 - - - - - - - 10.8 1013.1 0.0
11/10:30pm ENE 12 16 - - - - - - - 10.9 1013.4 0.0
11/10:00pm ENE 10 14 - - - - - - - 10.9 1013.6 0.0
11/09:30pm ENE 10 13 - - - - - - - 10.9 1013.6 0.0
11/09:00pm ENE 12 15 - - - - - - - 10.8 1013.6 0.0
11/08:30pm ENE 10 13 - - - - - - - 10.6 1013.6 0.0
11/08:00pm ENE 10 13 - - - - - - - 10.5 1013.7 0.0
11/07:30pm ENE 9 11 - - - - - - - 10.1 1013.9 0.0
11/07:00pm ENE 9 13 - - - - - - - 10.3 1013.8 0.0
11/06:30pm ENE 9 11 - - - - - - - 10.3 1013.7 0.0
11/06:00pm ENE 8 9 - - - - - - - 10.3 1013.9 0.0
11/05:30pm ENE 9 11 - - - - - - - 10.6 1013.8 0.0
11/05:00pm NE 8 10 - - - - - - - 10.9 1013.8 0.0
11/04:30pm NE 9 12 - - - - - - - 11.3 1013.8 0.0
11/04:00pm ENE 9 13 - - - - - - - 11.5 1014.0 0.0
11/03:30pm NE 9 13 - - - - - - - 11.7 1014.4 0.0
11/03:00pm ENE 11 14 - - - - - - - 12.1 1014.2 0.0
11/02:30pm ENE 11 16 - - - - - - - 13.0 1014.6 0.0
11/02:00pm ENE 12 15 - - - - - - - 13.2 1015.1 0.0
11/01:30pm NE 10 15 - - - - - - - 13.1 1015.5 0.0
11/01:00pm ENE 11 14 - - - - - - - 13.4 1015.9 0.0
11/12:30pm ENE 11 14 - - - - - - - 13.0 1016.3 0.0
11/12:00pm ENE 11 15 - - - - - - - 12.8 1016.6 0.0
11/11:30am ENE 12 16 - - - - - - - 12.5 1016.9 0.0
11/11:00am ENE 12 15 - - - - - - - 12.5 1017.0 0.0
11/10:30am ENE 11 15 - - - - - - - 11.2 1017.4 0.0
11/10:00am E 14 17 - - - - - - - 11.2 1017.3 0.0
11/09:30am E 12 17 - - - - - - - 10.4 1017.5 0.0
11/09:00am E 9 13 - - - - - - - 10.0 1017.8 0.0
11/08:30am E 7 9 - - - - - - - 9.5 1018.2 0.0
11/08:00am E 5 7 - - - - - - - 8.8 1018.1 0.0
11/07:30am E 6 7 - - - - - - - 7.4 1017.8 0.0
11/07:00am E 8 9 - - - - - - - 6.3 1017.6 0.0
11/06:30am E 9 9 - - - - - - - 5.8 1017.8 0.0
11/06:00am ENE 8 10 - - - - - - - 7.8 1018.0 0.0
11/05:30am ENE 7 8 - - - - - - - 8.5 1018.2 0.0
11/05:00am NE 7 8 - - - - - - - 7.9 1018.6 0.0
11/04:30am NE 9 11 - - - - - - - 8.8 1018.5 0.0
11/04:00am NE 9 12 - - - - - - - 9.8 1018.5 0.0
11/03:30am NNE 8 13 - - - - - - - 9.6 1018.9 0.0
11/03:00am NE 9 13 - - - - - - - 9.2 1019.4 0.0
11/02:30am ENE 5 11 - - - - - - - 7.1 1019.5 0.0
11/02:00am ESE 7 8 - - - - - - - 5.4 1019.1 0.0
11/01:30am ESE 8 10 - - - - - - - 5.5 1019.3 0.0
11/01:00am E 5 6 - - - - - - - 4.3 1019.9 0.0
11/12:30am ESE 6 7 - - - - - - - 2.2 1020.0 0.0
11/12:00am ESE 4 5 - - - - - - - 1.6 1020.2 0.0
 
Date/Time
EST
Wind Sea
Height
m
Swell Vis
km
Cloud Weather Temp
°C
Press
hPa
Rain since
9am
mm
Dir  Spd
kts
Gust
kts
Height
m
Period
s
Dir
10/11:30pm E 7 8 - - - - - - - 2.8 1019.9 0.0
10/11:00pm E 6 7 - - - - - - - 1.4 1020.4 0.0
10/10:30pm E 4 5 - - - - - - - 1.4 1020.7 0.0
10/10:00pm E 8 9 - - - - - - - 2.0 1020.5 0.0
10/09:30pm ESE 5 6 - - - - - - - 0.4 1021.2 0.0
10/09:00pm SSE 3 4 - - - - - - - 1.2 1021.4 0.0
10/08:30pm SSE 1 3 - - - - - - - 1.6 1021.6 0.0
10/08:00pm CALM 0 0 - - - - - - - 2.5 1021.6 0.0
10/07:30pm SSE 4 4 - - - - - - - 3.1 1021.6 0.0
10/07:00pm ESE 4 4 - - - - - - - 4.1 1021.3 0.0
10/06:30pm E 3 4 - - - - - - - 4.8 1021.0 0.0
10/06:00pm ENE 4 5 - - - - - - - 6.5 1020.7 0.0
10/05:30pm NE 5 8 - - - - - - - 8.2 1021.0 0.0
10/05:00pm NE 5 6 - - - - - - - 9.3 1021.3 0.0
10/04:30pm NE 7 10 - - - - - - - 10.2 1021.5 0.0
10/04:00pm NE 8 11 - - - - - - - 10.7 1021.5 0.0
10/03:30pm NNE 7 9 - - - - - - - 11.4 1021.7 0.0
10/03:00pm N 7 9 - - - - - - - 11.7 1021.8 0.0
10/02:30pm NNE 6 9 - - - - - - - 11.4 1021.9 0.0
10/02:00pm N 9 12 - - - - - - - 11.3 1021.9 0.0
10/01:30pm NNE 8 11 - - - - - - - 12.0 1022.1 0.0
10/01:00pm NNE 8 12 - - - - - - - 12.0 1022.4 0.0
10/12:30pm NNE 9 12 - - - - - - - 11.3 1022.6 0.0
10/12:00pm NNE 7 10 - - - - - - - 11.3 1023.1 0.0
10/11:30am NNE 6 8 - - - - - - - 10.7 1023.6 0.0
10/11:00am E 3 6 - - - - - - - 9.4 1023.8 0.0
10/10:30am SSW 2 3 - - - - - - - 7.2 1024.0 0.0
10/10:00am E 1 3 - - - - - - - 5.4 1024.0 0.0
10/09:30am SSW 1 3 - - - - - - - 4.1 1024.1 0.0
10/09:00am SSW 4 5 - - - - - - - 1.9 1024.2 0.0
10/08:30am S 5 6 - - - - - - - 0.7 1024.1 0.0
10/08:00am S 6 7 - - - - - - - -0.4 1024.0 0.0
10/07:30am S 7 9 - - - - - - - -0.6 1023.8 0.0
10/07:00am S 5 6 - - - - - - - -1.4 1023.7 0.0

Other formats

Comma delimited format used in spreadsheet applications
http://www.bom.gov.au/fwo/IDV60701/IDV60701.94953.axf

JavaScript Object Notation format (JSON) in row-major order
http://www.bom.gov.au/fwo/IDV60701/IDV60701.94953.json

Data quality

Most of these data are generated automatically and are frequently updated. Quality checks on data are not normally performed. It is possible for incorrect values to appear. Refer to information at About Latest Weather Observations and please check the disclaimer before using these data.